sensor_id;sensor_type;location;lat;lon;timestamp;P1;durP1;ratioP1;P2;durP2;ratioP2
21615;SDS011;10970;48.714;9.584;2022-12-18T00:00:09;69.15;;;29.85;;
21615;SDS011;10970;48.714;9.584;2022-12-18T00:02:35;64.35;;;35.10;;
21615;SDS011;10970;48.714;9.584;2022-12-18T00:05:00;56.30;;;30.40;;
21615;SDS011;10970;48.714;9.584;2022-12-18T00:07:28;68.65;;;31.25;;
21615;SDS011;10970;48.714;9.584;2022-12-18T00:09:54;54.37;;;30.07;;
21615;SDS011;10970;48.714;9.584;2022-12-18T00:12:20;70.57;;;30.53;;
21615;SDS011;10970;48.714;9.584;2022-12-18T00:14:45;64.23;;;32.00;;
21615;SDS011;10970;48.714;9.584;2022-12-18T00:17:11;53.63;;;29.33;;
21615;SDS011;10970;48.714;9.584;2022-12-18T00:19:36;49.67;;;27.47;;
21615;SDS011;10970;48.714;9.584;2022-12-18T00:22:02;62.30;;;30.70;;
21615;SDS011;10970;48.714;9.584;2022-12-18T00:24:28;69.60;;;29.93;;
21615;SDS011;10970;48.714;9.584;2022-12-18T00:26:53;47.37;;;26.93;;
21615;SDS011;10970;48.714;9.584;2022-12-18T00:29:19;57.83;;;26.87;;
21615;SDS011;10970;48.714;9.584;2022-12-18T00:31:45;58.17;;;30.10;;
21615;SDS011;10970;48.714;9.584;2022-12-18T00:34:11;49.60;;;26.07;;
21615;SDS011;10970;48.714;9.584;2022-12-18T00:36:39;45.83;;;24.00;;
21615;SDS011;10970;48.714;9.584;2022-12-18T00:39:05;51.83;;;26.55;;
21615;SDS011;10970;48.714;9.584;2022-12-18T00:41:31;52.80;;;25.10;;
21615;SDS011;10970;48.714;9.584;2022-12-18T00:44:16;57.15;;;26.70;;
21615;SDS011;10970;48.714;9.584;2022-12-18T00:46:43;65.10;;;26.85;;
21615;SDS011;10970;48.714;9.584;2022-12-18T00:49:13;58.88;;;27.52;;
21615;SDS011;10970;48.714;9.584;2022-12-18T00:51:39;49.05;;;26.27;;
21615;SDS011;10970;48.714;9.584;2022-12-18T00:54:05;52.37;;;27.70;;
21615;SDS011;10970;48.714;9.584;2022-12-18T00:56:30;46.93;;;26.33;;
21615;SDS011;10970;48.714;9.584;2022-12-18T00:58:56;52.67;;;24.07;;
21615;SDS011;10970;48.714;9.584;2022-12-18T01:01:22;59.73;;;27.43;;
21615;SDS011;10970;48.714;9.584;2022-12-18T01:03:48;52.60;;;26.00;;
21615;SDS011;10970;48.714;9.584;2022-12-18T01:06:14;57.30;;;27.07;;
21615;SDS011;10970;48.714;9.584;2022-12-18T01:08:40;45.67;;;23.90;;
21615;SDS011;10970;48.714;9.584;2022-12-18T01:11:07;48.27;;;28.07;;
21615;SDS011;10970;48.714;9.584;2022-12-18T01:13:37;64.10;;;29.58;;
21615;SDS011;10970;48.714;9.584;2022-12-18T01:16:03;50.25;;;26.95;;
21615;SDS011;10970;48.714;9.584;2022-12-18T01:18:29;50.80;;;26.13;;
21615;SDS011;10970;48.714;9.584;2022-12-18T01:20:55;49.50;;;26.70;;
21615;SDS011;10970;48.714;9.584;2022-12-18T01:23:20;56.40;;;26.37;;
21615;SDS011;10970;48.714;9.584;2022-12-18T01:25:46;47.60;;;24.07;;
21615;SDS011;10970;48.714;9.584;2022-12-18T01:28:12;58.17;;;25.20;;
21615;SDS011;10970;48.714;9.584;2022-12-18T01:30:37;55.57;;;25.37;;
21615;SDS011;10970;48.714;9.584;2022-12-18T01:33:06;54.67;;;24.13;;
21615;SDS011;10970;48.714;9.584;2022-12-18T01:35:31;61.10;;;24.75;;
21615;SDS011;10970;48.714;9.584;2022-12-18T01:37:57;70.83;;;28.03;;
21615;SDS011;10970;48.714;9.584;2022-12-18T01:40:22;48.80;;;24.77;;
21615;SDS011;10970;48.714;9.584;2022-12-18T01:42:52;73.33;;;29.23;;
21615;SDS011;10970;48.714;9.584;2022-12-18T01:50:15;60.53;;;28.15;;
21615;SDS011;10970;48.714;9.584;2022-12-18T01:52:48;71.63;;;28.40;;
21615;SDS011;10970;48.714;9.584;2022-12-18T01:55:18;78.22;;;26.27;;
21615;SDS011;10970;48.714;9.584;2022-12-18T01:57:47;59.63;;;26.75;;
21615;SDS011;10970;48.714;9.584;2022-12-18T02:00:15;76.28;;;29.35;;
21615;SDS011;10970;48.714;9.584;2022-12-18T02:02:43;61.83;;;28.65;;
21615;SDS011;10970;48.714;9.584;2022-12-18T02:05:10;66.65;;;25.92;;
21615;SDS011;10970;48.714;9.584;2022-12-18T02:07:41;55.80;;;24.73;;
21615;SDS011;10970;48.714;9.584;2022-12-18T02:10:51;65.35;;;29.17;;
21615;SDS011;10970;48.714;9.584;2022-12-18T02:13:27;62.28;;;27.00;;
21615;SDS011;10970;48.714;9.584;2022-12-18T02:18:33;68.82;;;27.58;;
21615;SDS011;10970;48.714;9.584;2022-12-18T02:21:14;75.78;;;31.35;;
21615;SDS011;10970;48.714;9.584;2022-12-18T02:24:18;67.03;;;26.85;;
21615;SDS011;10970;48.714;9.584;2022-12-18T02:26:58;73.47;;;30.88;;
21615;SDS011;10970;48.714;9.584;2022-12-18T02:29:29;68.88;;;25.27;;
21615;SDS011;10970;48.714;9.584;2022-12-18T02:32:16;46.17;;;20.77;;
21615;SDS011;10970;48.714;9.584;2022-12-18T02:34:46;40.65;;;22.27;;
21615;SDS011;10970;48.714;9.584;2022-12-18T02:37:14;61.22;;;26.00;;
21615;SDS011;10970;48.714;9.584;2022-12-18T02:39:43;68.13;;;27.08;;
21615;SDS011;10970;48.714;9.584;2022-12-18T02:42:11;58.13;;;24.48;;
21615;SDS011;10970;48.714;9.584;2022-12-18T02:44:47;65.45;;;30.52;;
21615;SDS011;10970;48.714;9.584;2022-12-18T02:47:16;60.42;;;26.92;;
21615;SDS011;10970;48.714;9.584;2022-12-18T02:57:58;53.75;;;24.50;;
21615;SDS011;10970;48.714;9.584;2022-12-18T03:00:32;56.72;;;27.73;;
21615;SDS011;10970;48.714;9.584;2022-12-18T03:03:13;64.28;;;25.52;;
21615;SDS011;10970;48.714;9.584;2022-12-18T03:08:34;56.45;;;27.08;;
21615;SDS011;10970;48.714;9.584;2022-12-18T03:11:11;57.70;;;26.90;;
21615;SDS011;10970;48.714;9.584;2022-12-18T03:13:54;68.07;;;31.20;;
21615;SDS011;10970;48.714;9.584;2022-12-18T03:16:25;79.38;;;27.98;;
21615;SDS011;10970;48.714;9.584;2022-12-18T03:18:54;67.35;;;27.40;;
21615;SDS011;10970;48.714;9.584;2022-12-18T03:21:28;76.53;;;25.92;;
21615;SDS011;10970;48.714;9.584;2022-12-18T03:23:58;64.93;;;29.95;;
21615;SDS011;10970;48.714;9.584;2022-12-18T03:26:26;76.57;;;33.45;;
21615;SDS011;10970;48.714;9.584;2022-12-18T03:28:53;57.30;;;28.13;;
21615;SDS011;10970;48.714;9.584;2022-12-18T03:31:24;56.60;;;26.55;;
21615;SDS011;10970;48.714;9.584;2022-12-18T03:33:54;59.00;;;28.88;;
21615;SDS011;10970;48.714;9.584;2022-12-18T03:36:22;77.30;;;29.25;;
21615;SDS011;10970;48.714;9.584;2022-12-18T03:38:48;85.03;;;33.25;;
21615;SDS011;10970;48.714;9.584;2022-12-18T03:49:27;56.88;;;24.40;;
21615;SDS011;10970;48.714;9.584;2022-12-18T03:54:42;49.70;;;25.58;;
21615;SDS011;10970;48.714;9.584;2022-12-18T03:57:11;59.83;;;28.75;;
21615;SDS011;10970;48.714;9.584;2022-12-18T03:59:41;62.45;;;26.95;;
21615;SDS011;10970;48.714;9.584;2022-12-18T04:02:09;70.88;;;28.02;;
21615;SDS011;10970;48.714;9.584;2022-12-18T04:04:38;68.35;;;30.20;;
21615;SDS011;10970;48.714;9.584;2022-12-18T04:07:05;60.28;;;25.67;;
21615;SDS011;10970;48.714;9.584;2022-12-18T04:09:32;63.85;;;27.55;;
21615;SDS011;10970;48.714;9.584;2022-12-18T04:11:59;58.20;;;27.08;;
21615;SDS011;10970;48.714;9.584;2022-12-18T04:14:24;63.53;;;28.03;;
21615;SDS011;10970;48.714;9.584;2022-12-18T04:16:50;60.83;;;27.07;;
21615;SDS011;10970;48.714;9.584;2022-12-18T04:19:16;53.30;;;24.80;;
21615;SDS011;10970;48.714;9.584;2022-12-18T04:21:41;54.93;;;26.93;;
21615;SDS011;10970;48.714;9.584;2022-12-18T04:24:07;51.53;;;26.50;;
21615;SDS011;10970;48.714;9.584;2022-12-18T04:26:33;44.53;;;25.30;;
21615;SDS011;10970;48.714;9.584;2022-12-18T04:28:59;45.63;;;23.97;;
21615;SDS011;10970;48.714;9.584;2022-12-18T04:31:24;55.67;;;22.23;;
21615;SDS011;10970;48.714;9.584;2022-12-18T04:33:50;63.42;;;24.63;;
21615;SDS011;10970;48.714;9.584;2022-12-18T04:36:16;51.40;;;24.67;;
21615;SDS011;10970;48.714;9.584;2022-12-18T04:38:42;59.07;;;23.10;;
21615;SDS011;10970;48.714;9.584;2022-12-18T04:41:07;55.47;;;24.13;;
21615;SDS011;10970;48.714;9.584;2022-12-18T04:43:33;43.50;;;23.10;;
21615;SDS011;10970;48.714;9.584;2022-12-18T04:46:05;50.13;;;24.93;;
21615;SDS011;10970;48.714;9.584;2022-12-18T04:48:32;68.68;;;28.48;;
21615;SDS011;10970;48.714;9.584;2022-12-18T04:50:57;60.13;;;25.57;;
21615;SDS011;10970;48.714;9.584;2022-12-18T04:53:23;59.07;;;24.90;;
21615;SDS011;10970;48.714;9.584;2022-12-18T04:55:49;54.60;;;24.30;;
21615;SDS011;10970;48.714;9.584;2022-12-18T04:58:14;73.97;;;26.40;;
21615;SDS011;10970;48.714;9.584;2022-12-18T05:00:40;74.13;;;25.30;;
21615;SDS011;10970;48.714;9.584;2022-12-18T05:03:06;63.40;;;25.53;;
21615;SDS011;10970;48.714;9.584;2022-12-18T05:05:33;64.80;;;25.47;;
21615;SDS011;10970;48.714;9.584;2022-12-18T05:07:59;60.58;;;24.85;;
21615;SDS011;10970;48.714;9.584;2022-12-18T05:10:25;69.03;;;28.00;;
21615;SDS011;10970;48.714;9.584;2022-12-18T05:12:51;61.17;;;26.17;;
21615;SDS011;10970;48.714;9.584;2022-12-18T05:15:29;85.22;;;28.98;;
21615;SDS011;10970;48.714;9.584;2022-12-18T05:17:56;58.47;;;26.83;;
21615;SDS011;10970;48.714;9.584;2022-12-18T05:20:22;92.80;;;29.77;;
21615;SDS011;10970;48.714;9.584;2022-12-18T05:22:48;97.40;;;32.47;;
21615;SDS011;10970;48.714;9.584;2022-12-18T05:25:15;75.78;;;26.17;;
21615;SDS011;10970;48.714;9.584;2022-12-18T05:27:40;78.43;;;30.13;;
21615;SDS011;10970;48.714;9.584;2022-12-18T05:30:06;94.03;;;33.10;;
21615;SDS011;10970;48.714;9.584;2022-12-18T05:32:33;84.45;;;29.90;;
21615;SDS011;10970;48.714;9.584;2022-12-18T05:34:59;75.80;;;32.10;;
21615;SDS011;10970;48.714;9.584;2022-12-18T05:37:24;79.50;;;26.60;;
21615;SDS011;10970;48.714;9.584;2022-12-18T05:39:50;70.60;;;27.37;;
21615;SDS011;10970;48.714;9.584;2022-12-18T05:42:16;56.17;;;24.17;;
21615;SDS011;10970;48.714;9.584;2022-12-18T05:44:41;52.27;;;20.83;;
21615;SDS011;10970;48.714;9.584;2022-12-18T05:47:08;47.55;;;24.77;;
21615;SDS011;10970;48.714;9.584;2022-12-18T05:49:33;46.23;;;23.90;;
21615;SDS011;10970;48.714;9.584;2022-12-18T05:51:59;45.20;;;23.07;;
21615;SDS011;10970;48.714;9.584;2022-12-18T05:54:26;54.37;;;25.47;;
21615;SDS011;10970;48.714;9.584;2022-12-18T05:56:52;45.83;;;20.83;;
21615;SDS011;10970;48.714;9.584;2022-12-18T05:59:18;42.63;;;21.83;;
21615;SDS011;10970;48.714;9.584;2022-12-18T06:01:44;43.63;;;21.00;;
21615;SDS011;10970;48.714;9.584;2022-12-18T06:04:10;48.27;;;20.80;;
21615;SDS011;10970;48.714;9.584;2022-12-18T06:06:35;39.03;;;20.87;;
21615;SDS011;10970;48.714;9.584;2022-12-18T06:09:01;44.27;;;23.30;;
21615;SDS011;10970;48.714;9.584;2022-12-18T06:11:33;37.75;;;19.95;;
21615;SDS011;10970;48.714;9.584;2022-12-18T06:13:59;46.97;;;23.52;;
21615;SDS011;10970;48.714;9.584;2022-12-18T06:16:26;49.00;;;23.67;;
21615;SDS011;10970;48.714;9.584;2022-12-18T06:18:52;43.75;;;19.10;;
21615;SDS011;10970;48.714;9.584;2022-12-18T06:21:18;36.33;;;18.80;;
21615;SDS011;10970;48.714;9.584;2022-12-18T06:23:44;66.75;;;22.55;;
21615;SDS011;10970;48.714;9.584;2022-12-18T06:26:10;52.40;;;22.40;;
21615;SDS011;10970;48.714;9.584;2022-12-18T06:28:37;54.15;;;24.55;;
21615;SDS011;10970;48.714;9.584;2022-12-18T06:31:03;56.97;;;25.50;;
21615;SDS011;10970;48.714;9.584;2022-12-18T06:33:30;51.35;;;24.20;;
21615;SDS011;10970;48.714;9.584;2022-12-18T06:35:59;54.88;;;22.02;;
21615;SDS011;10970;48.714;9.584;2022-12-18T06:38:32;53.22;;;21.98;;
21615;SDS011;10970;48.714;9.584;2022-12-18T06:40:59;43.30;;;22.20;;
21615;SDS011;10970;48.714;9.584;2022-12-18T06:43:25;57.30;;;21.50;;
21615;SDS011;10970;48.714;9.584;2022-12-18T06:45:51;39.22;;;21.85;;
21615;SDS011;10970;48.714;9.584;2022-12-18T06:48:24;43.65;;;20.08;;
21615;SDS011;10970;48.714;9.584;2022-12-18T06:50:49;39.27;;;16.77;;
21615;SDS011;10970;48.714;9.584;2022-12-18T06:53:15;47.80;;;21.80;;
21615;SDS011;10970;48.714;9.584;2022-12-18T06:55:40;55.03;;;25.17;;
21615;SDS011;10970;48.714;9.584;2022-12-18T06:58:06;45.43;;;22.90;;
21615;SDS011;10970;48.714;9.584;2022-12-18T07:00:32;52.40;;;24.30;;
21615;SDS011;10970;48.714;9.584;2022-12-18T07:02:57;49.67;;;22.10;;
21615;SDS011;10970;48.714;9.584;2022-12-18T07:05:23;39.20;;;22.57;;
21615;SDS011;10970;48.714;9.584;2022-12-18T07:07:48;47.80;;;25.07;;
21615;SDS011;10970;48.714;9.584;2022-12-18T07:10:14;38.07;;;18.40;;
21615;SDS011;10970;48.714;9.584;2022-12-18T07:12:40;42.80;;;22.77;;
21615;SDS011;10970;48.714;9.584;2022-12-18T07:15:06;56.72;;;22.75;;
21615;SDS011;10970;48.714;9.584;2022-12-18T07:17:32;47.75;;;22.23;;
21615;SDS011;10970;48.714;9.584;2022-12-18T07:19:58;40.27;;;19.07;;
21615;SDS011;10970;48.714;9.584;2022-12-18T07:22:24;40.20;;;17.40;;
21615;SDS011;10970;48.714;9.584;2022-12-18T07:24:50;48.85;;;20.23;;
21615;SDS011;10970;48.714;9.584;2022-12-18T07:27:16;40.10;;;16.63;;
21615;SDS011;10970;48.714;9.584;2022-12-18T07:29:42;42.50;;;22.10;;
21615;SDS011;10970;48.714;9.584;2022-12-18T07:32:07;53.67;;;24.37;;
21615;SDS011;10970;48.714;9.584;2022-12-18T07:34:33;58.00;;;24.20;;
21615;SDS011;10970;48.714;9.584;2022-12-18T07:36:59;44.15;;;27.95;;
21615;SDS011;10970;48.714;9.584;2022-12-18T07:39:25;60.83;;;28.03;;
21615;SDS011;10970;48.714;9.584;2022-12-18T07:41:51;52.83;;;23.27;;
21615;SDS011;10970;48.714;9.584;2022-12-18T07:44:35;59.33;;;25.05;;
21615;SDS011;10970;48.714;9.584;2022-12-18T07:47:01;58.97;;;32.10;;
21615;SDS011;10970;48.714;9.584;2022-12-18T07:49:27;61.17;;;28.63;;
21615;SDS011;10970;48.714;9.584;2022-12-18T07:51:54;63.55;;;29.98;;
21615;SDS011;10970;48.714;9.584;2022-12-18T07:54:21;59.35;;;28.05;;
21615;SDS011;10970;48.714;9.584;2022-12-18T07:56:47;48.30;;;27.15;;
21615;SDS011;10970;48.714;9.584;2022-12-18T07:59:13;47.50;;;25.33;;
21615;SDS011;10970;48.714;9.584;2022-12-18T08:01:39;37.05;;;18.48;;
21615;SDS011;10970;48.714;9.584;2022-12-18T08:04:05;47.80;;;21.43;;
21615;SDS011;10970;48.714;9.584;2022-12-18T08:06:30;52.77;;;25.23;;
21615;SDS011;10970;48.714;9.584;2022-12-18T08:08:56;50.08;;;25.05;;
21615;SDS011;10970;48.714;9.584;2022-12-18T08:11:23;72.27;;;28.20;;
21615;SDS011;10970;48.714;9.584;2022-12-18T08:13:50;44.40;;;23.73;;
21615;SDS011;10970;48.714;9.584;2022-12-18T08:16:16;53.55;;;22.17;;
21615;SDS011;10970;48.714;9.584;2022-12-18T08:18:42;50.78;;;22.05;;
21615;SDS011;10970;48.714;9.584;2022-12-18T08:21:18;51.87;;;22.30;;
21615;SDS011;10970;48.714;9.584;2022-12-18T08:23:47;59.85;;;25.20;;
21615;SDS011;10970;48.714;9.584;2022-12-18T08:26:13;65.43;;;31.00;;
21615;SDS011;10970;48.714;9.584;2022-12-18T08:28:39;57.75;;;27.67;;
21615;SDS011;10970;48.714;9.584;2022-12-18T08:31:05;49.95;;;24.00;;
21615;SDS011;10970;48.714;9.584;2022-12-18T08:33:32;53.17;;;27.90;;
21615;SDS011;10970;48.714;9.584;2022-12-18T08:35:58;57.63;;;27.85;;
21615;SDS011;10970;48.714;9.584;2022-12-18T08:38:24;50.92;;;23.80;;
21615;SDS011;10970;48.714;9.584;2022-12-18T08:40:57;55.17;;;25.43;;
21615;SDS011;10970;48.714;9.584;2022-12-18T08:43:24;57.22;;;24.90;;
21615;SDS011;10970;48.714;9.584;2022-12-18T08:46:09;50.05;;;25.45;;
21615;SDS011;10970;48.714;9.584;2022-12-18T08:48:34;44.43;;;20.47;;
21615;SDS011;10970;48.714;9.584;2022-12-18T08:51:00;53.67;;;21.53;;
21615;SDS011;10970;48.714;9.584;2022-12-18T08:53:26;51.87;;;22.57;;
21615;SDS011;10970;48.714;9.584;2022-12-18T08:55:52;58.83;;;28.83;;
21615;SDS011;10970;48.714;9.584;2022-12-18T08:58:18;42.60;;;21.07;;
21615;SDS011;10970;48.714;9.584;2022-12-18T09:00:44;44.60;;;21.70;;
21615;SDS011;10970;48.714;9.584;2022-12-18T09:03:14;63.93;;;26.70;;
21615;SDS011;10970;48.714;9.584;2022-12-18T09:05:41;49.75;;;25.27;;
21615;SDS011;10970;48.714;9.584;2022-12-18T09:08:06;50.47;;;26.10;;
21615;SDS011;10970;48.714;9.584;2022-12-18T09:10:32;43.00;;;23.75;;
21615;SDS011;10970;48.714;9.584;2022-12-18T09:12:59;59.38;;;29.13;;
21615;SDS011;10970;48.714;9.584;2022-12-18T09:15:25;56.95;;;24.40;;
21615;SDS011;10970;48.714;9.584;2022-12-18T09:17:51;59.47;;;26.85;;
21615;SDS011;10970;48.714;9.584;2022-12-18T09:20:17;41.05;;;22.10;;
21615;SDS011;10970;48.714;9.584;2022-12-18T09:22:43;52.92;;;26.00;;
21615;SDS011;10970;48.714;9.584;2022-12-18T09:25:09;36.57;;;23.50;;
21615;SDS011;10970;48.714;9.584;2022-12-18T09:27:35;47.13;;;23.80;;
21615;SDS011;10970;48.714;9.584;2022-12-18T09:30:01;50.20;;;25.33;;
21615;SDS011;10970;48.714;9.584;2022-12-18T09:32:28;52.28;;;28.80;;
21615;SDS011;10970;48.714;9.584;2022-12-18T09:34:53;55.57;;;30.00;;
21615;SDS011;10970;48.714;9.584;2022-12-18T09:37:19;48.43;;;27.13;;
21615;SDS011;10970;48.714;9.584;2022-12-18T09:39:44;49.33;;;24.87;;
21615;SDS011;10970;48.714;9.584;2022-12-18T09:42:17;49.10;;;25.47;;
21615;SDS011;10970;48.714;9.584;2022-12-18T09:44:48;38.70;;;23.80;;
21615;SDS011;10970;48.714;9.584;2022-12-18T09:47:24;56.28;;;26.33;;
21615;SDS011;10970;48.714;9.584;2022-12-18T09:49:58;48.00;;;24.25;;
21615;SDS011;10970;48.714;9.584;2022-12-18T09:52:27;50.30;;;26.05;;
21615;SDS011;10970;48.714;9.584;2022-12-18T09:55:05;51.22;;;22.80;;
21615;SDS011;10970;48.714;9.584;2022-12-18T09:57:34;45.20;;;24.30;;
21615;SDS011;10970;48.714;9.584;2022-12-18T10:00:15;44.95;;;19.55;;
21615;SDS011;10970;48.714;9.584;2022-12-18T10:02:53;50.00;;;21.13;;
21615;SDS011;10970;48.714;9.584;2022-12-18T10:05:35;49.22;;;22.50;;
21615;SDS011;10970;48.714;9.584;2022-12-18T10:10:50;46.38;;;24.63;;
21615;SDS011;10970;48.714;9.584;2022-12-18T10:15:54;43.92;;;18.42;;
21615;SDS011;10970;48.714;9.584;2022-12-18T10:21:28;30.45;;;17.30;;
21615;SDS011;10970;48.714;9.584;2022-12-18T10:26:40;39.65;;;18.77;;
21615;SDS011;10970;48.714;9.584;2022-12-18T10:29:11;34.88;;;17.83;;
21615;SDS011;10970;48.714;9.584;2022-12-18T10:31:38;32.25;;;17.08;;
21615;SDS011;10970;48.714;9.584;2022-12-18T10:34:03;29.60;;;17.97;;
21615;SDS011;10970;48.714;9.584;2022-12-18T10:36:29;38.60;;;17.23;;
21615;SDS011;10970;48.714;9.584;2022-12-18T10:39:04;33.00;;;15.23;;
21615;SDS011;10970;48.714;9.584;2022-12-18T10:41:40;32.47;;;14.05;;
21615;SDS011;10970;48.714;9.584;2022-12-18T10:44:48;37.50;;;17.17;;
21615;SDS011;10970;48.714;9.584;2022-12-18T10:46:55;30.40;;;16.38;;
21615;SDS011;10970;48.714;9.584;2022-12-18T10:49:31;40.85;;;18.05;;
21615;SDS011;10970;48.714;9.584;2022-12-18T10:52:31;30.75;;;16.45;;
21615;SDS011;10970;48.714;9.584;2022-12-18T10:54:57;37.22;;;19.60;;
21615;SDS011;10970;48.714;9.584;2022-12-18T10:57:39;27.88;;;16.15;;
21615;SDS011;10970;48.714;9.584;2022-12-18T11:00:27;32.17;;;17.75;;
21615;SDS011;10970;48.714;9.584;2022-12-18T11:02:55;29.77;;;16.08;;
21615;SDS011;10970;48.714;9.584;2022-12-18T11:05:23;29.95;;;16.92;;
21615;SDS011;10970;48.714;9.584;2022-12-18T11:07:49;29.95;;;15.50;;
21615;SDS011;10970;48.714;9.584;2022-12-18T11:10:18;24.42;;;15.82;;
21615;SDS011;10970;48.714;9.584;2022-12-18T11:12:46;38.83;;;18.45;;
21615;SDS011;10970;48.714;9.584;2022-12-18T11:15:23;31.20;;;17.42;;
21615;SDS011;10970;48.714;9.584;2022-12-18T11:17:54;28.70;;;14.57;;
21615;SDS011;10970;48.714;9.584;2022-12-18T11:20:23;33.83;;;15.73;;
21615;SDS011;10970;48.714;9.584;2022-12-18T11:23:05;32.42;;;16.77;;
21615;SDS011;10970;48.714;9.584;2022-12-18T11:25:38;26.27;;;15.15;;
21615;SDS011;10970;48.714;9.584;2022-12-18T11:28:08;28.80;;;15.57;;
21615;SDS011;10970;48.714;9.584;2022-12-18T11:31:10;25.45;;;14.43;;
21615;SDS011;10970;48.714;9.584;2022-12-18T11:33:40;34.28;;;16.67;;
21615;SDS011;10970;48.714;9.584;2022-12-18T11:36:09;29.98;;;15.65;;
21615;SDS011;10970;48.714;9.584;2022-12-18T11:38:36;36.10;;;16.88;;
21615;SDS011;10970;48.714;9.584;2022-12-18T11:43:35;28.80;;;15.90;;
21615;SDS011;10970;48.714;9.584;2022-12-18T11:46:09;34.50;;;16.35;;
21615;SDS011;10970;48.714;9.584;2022-12-18T11:51:32;31.02;;;14.85;;
21615;SDS011;10970;48.714;9.584;2022-12-18T11:54:21;29.88;;;15.50;;
21615;SDS011;10970;48.714;9.584;2022-12-18T12:02:11;27.13;;;15.40;;
21615;SDS011;10970;48.714;9.584;2022-12-18T12:04:46;36.05;;;16.30;;
21615;SDS011;10970;48.714;9.584;2022-12-18T12:07:25;33.70;;;15.95;;
21615;SDS011;10970;48.714;9.584;2022-12-18T12:10:09;30.88;;;16.48;;
21615;SDS011;10970;48.714;9.584;2022-12-18T12:23:55;30.02;;;14.73;;
21615;SDS011;10970;48.714;9.584;2022-12-18T12:26:06;29.17;;;16.23;;
21615;SDS011;10970;48.714;9.584;2022-12-18T12:28:49;24.55;;;15.77;;
21615;SDS011;10970;48.714;9.584;2022-12-18T12:34:22;36.70;;;19.33;;
21615;SDS011;10970;48.714;9.584;2022-12-18T12:39:33;36.75;;;17.98;;
21615;SDS011;10970;48.714;9.584;2022-12-18T12:42:02;34.13;;;19.67;;
21615;SDS011;10970;48.714;9.584;2022-12-18T12:44:54;26.88;;;15.75;;
21615;SDS011;10970;48.714;9.584;2022-12-18T12:47:40;34.97;;;17.35;;
21615;SDS011;10970;48.714;9.584;2022-12-18T12:50:13;40.80;;;18.58;;
21615;SDS011;10970;48.714;9.584;2022-12-18T12:53:05;37.47;;;17.63;;
21615;SDS011;10970;48.714;9.584;2022-12-18T12:55:31;32.88;;;17.17;;
21615;SDS011;10970;48.714;9.584;2022-12-18T13:00:33;31.98;;;16.35;;
21615;SDS011;10970;48.714;9.584;2022-12-18T13:03:30;35.78;;;17.48;;
21615;SDS011;10970;48.714;9.584;2022-12-18T13:06:41;39.85;;;19.65;;
21615;SDS011;10970;48.714;9.584;2022-12-18T13:09:32;27.55;;;16.00;;
21615;SDS011;10970;48.714;9.584;2022-12-18T13:12:09;33.95;;;16.58;;
21615;SDS011;10970;48.714;9.584;2022-12-18T13:14:58;34.20;;;16.35;;
21615;SDS011;10970;48.714;9.584;2022-12-18T13:17:47;31.85;;;16.35;;
21615;SDS011;10970;48.714;9.584;2022-12-18T13:20:13;30.13;;;15.50;;
21615;SDS011;10970;48.714;9.584;2022-12-18T13:22:42;33.45;;;15.38;;
21615;SDS011;10970;48.714;9.584;2022-12-18T13:25:29;41.40;;;15.40;;
21615;SDS011;10970;48.714;9.584;2022-12-18T13:28:04;32.90;;;14.85;;
21615;SDS011;10970;48.714;9.584;2022-12-18T13:33:34;34.38;;;15.60;;
21615;SDS011;10970;48.714;9.584;2022-12-18T13:36:02;31.58;;;16.88;;
21615;SDS011;10970;48.714;9.584;2022-12-18T13:41:36;41.10;;;19.05;;
21615;SDS011;10970;48.714;9.584;2022-12-18T13:46:57;31.33;;;16.10;;
21615;SDS011;10970;48.714;9.584;2022-12-18T13:52:03;37.75;;;19.02;;
21615;SDS011;10970;48.714;9.584;2022-12-18T13:54:50;33.33;;;17.45;;
21615;SDS011;10970;48.714;9.584;2022-12-18T13:57:27;32.25;;;16.85;;
21615;SDS011;10970;48.714;9.584;2022-12-18T14:02:47;35.80;;;17.88;;
21615;SDS011;10970;48.714;9.584;2022-12-18T14:05:47;31.63;;;16.20;;
21615;SDS011;10970;48.714;9.584;2022-12-18T14:08:10;29.27;;;14.52;;
21615;SDS011;10970;48.714;9.584;2022-12-18T14:10:41;32.13;;;15.98;;
21615;SDS011;10970;48.714;9.584;2022-12-18T14:13:13;34.53;;;15.38;;
21615;SDS011;10970;48.714;9.584;2022-12-18T14:15:46;32.70;;;16.95;;
21615;SDS011;10970;48.714;9.584;2022-12-18T14:20:45;35.42;;;17.23;;
21615;SDS011;10970;48.714;9.584;2022-12-18T14:26:02;36.42;;;18.13;;
21615;SDS011;10970;48.714;9.584;2022-12-18T14:28:44;29.05;;;14.90;;
21615;SDS011;10970;48.714;9.584;2022-12-18T14:31:19;29.20;;;15.30;;
21615;SDS011;10970;48.714;9.584;2022-12-18T14:33:46;30.65;;;15.00;;
21615;SDS011;10970;48.714;9.584;2022-12-18T14:36:14;30.30;;;19.03;;
21615;SDS011;10970;48.714;9.584;2022-12-18T14:38:42;27.20;;;14.05;;
21615;SDS011;10970;48.714;9.584;2022-12-18T14:41:15;31.60;;;16.38;;
21615;SDS011;10970;48.714;9.584;2022-12-18T14:43:43;24.17;;;15.13;;
21615;SDS011;10970;48.714;9.584;2022-12-18T14:48:58;30.42;;;18.45;;
21615;SDS011;10970;48.714;9.584;2022-12-18T14:51:31;34.05;;;15.48;;
21615;SDS011;10970;48.714;9.584;2022-12-18T14:53:59;30.08;;;15.60;;
21615;SDS011;10970;48.714;9.584;2022-12-18T14:56:37;31.58;;;16.55;;
21615;SDS011;10970;48.714;9.584;2022-12-18T14:59:14;31.30;;;16.05;;
21615;SDS011;10970;48.714;9.584;2022-12-18T15:07:02;32.17;;;16.75;;
21615;SDS011;10970;48.714;9.584;2022-12-18T15:09:30;33.80;;;17.58;;
21615;SDS011;10970;48.714;9.584;2022-12-18T15:11:57;39.87;;;16.87;;
21615;SDS011;10970;48.714;9.584;2022-12-18T15:16:57;39.55;;;17.95;;
21615;SDS011;10970;48.714;9.584;2022-12-18T15:19:36;28.48;;;15.15;;
21615;SDS011;10970;48.714;9.584;2022-12-18T15:22:04;29.98;;;16.27;;
21615;SDS011;10970;48.714;9.584;2022-12-18T15:24:41;36.10;;;15.55;;
21615;SDS011;10970;48.714;9.584;2022-12-18T15:27:18;34.37;;;17.47;;
21615;SDS011;10970;48.714;9.584;2022-12-18T15:32:35;31.10;;;18.77;;
21615;SDS011;10970;48.714;9.584;2022-12-18T15:37:34;35.92;;;16.55;;
21615;SDS011;10970;48.714;9.584;2022-12-18T15:40:00;28.65;;;15.93;;
21615;SDS011;10970;48.714;9.584;2022-12-18T15:42:27;33.67;;;15.30;;
21615;SDS011;10970;48.714;9.584;2022-12-18T15:45:12;29.63;;;15.98;;
21615;SDS011;10970;48.714;9.584;2022-12-18T15:47:39;32.05;;;14.43;;
21615;SDS011;10970;48.714;9.584;2022-12-18T15:50:08;30.73;;;15.95;;
21615;SDS011;10970;48.714;9.584;2022-12-18T15:52:38;26.77;;;14.97;;
21615;SDS011;10970;48.714;9.584;2022-12-18T15:55:17;27.70;;;16.45;;
21615;SDS011;10970;48.714;9.584;2022-12-18T15:58:05;22.33;;;13.82;;
21615;SDS011;10970;48.714;9.584;2022-12-18T16:00:32;27.10;;;15.65;;
21615;SDS011;10970;48.714;9.584;2022-12-18T16:02:59;35.45;;;15.13;;
21615;SDS011;10970;48.714;9.584;2022-12-18T16:05:25;33.73;;;13.67;;
21615;SDS011;10970;48.714;9.584;2022-12-18T16:07:52;36.17;;;17.60;;
21615;SDS011;10970;48.714;9.584;2022-12-18T16:10:18;43.00;;;17.30;;
21615;SDS011;10970;48.714;9.584;2022-12-18T16:12:44;30.95;;;17.45;;
21615;SDS011;10970;48.714;9.584;2022-12-18T16:15:12;32.80;;;16.50;;
21615;SDS011;10970;48.714;9.584;2022-12-18T16:17:40;26.90;;;17.00;;
21615;SDS011;10970;48.714;9.584;2022-12-18T16:20:14;38.95;;;17.67;;
21615;SDS011;10970;48.714;9.584;2022-12-18T16:22:45;32.65;;;15.18;;